FL64 weather

Hardrives Delta Nr 3 Helistop
Delray Beach, Florida, United States

Public forecast

Using degrees Fahrenheit for public forecast. Weather courtesy of forecast.io.

Closest aviation weather report (METAR) to Hardrives Delta Nr 3 Helistop

Report is more than 2 hours old.

Closest report is Boca Raton Airport, 3.3 nm (6.2 km) SSW. Retrieved 2019/10/21 02:53 UTC (4 hours ago):

KBCT 210253Z 22005KT 10SM SCT028 28/24 A2999

Closest aviation forecast (TAF) to Hardrives Delta Nr 3 Helistop

Closest forecast is Fort Lauderdale Executive Airport, 14.7 nm (27.3 km) SSW. Retrieved 2019/10/21 06:39 UTC (8 minutes ago):

TAF KFXE 210536Z 2106/2206 VRB03KT P6SM FEW050 SCT250 FM211400 14008KT P6SM SCT035 BKN050 FM220200 VRB03KT P6SM FEW030